createdAt,value
2023-03-06T00:00:31.963Z,7.25
2023-03-06T00:02:58.406Z,6.63
2023-03-06T00:05:24.832Z,6.72
2023-03-06T00:07:51.283Z,6.32
2023-03-06T00:10:23.088Z,5.55
2023-03-06T00:12:52.538Z,5.20
2023-03-06T00:15:19.378Z,4.30
2023-03-06T00:17:45.742Z,4.78
2023-03-06T00:20:13.284Z,4.90
2023-03-06T00:22:40.559Z,5.07
2023-03-06T00:25:08.708Z,5.15
2023-03-06T00:27:35.235Z,6.10
2023-03-06T00:30:01.941Z,5.95
2023-03-06T00:32:28.921Z,6.68
2023-03-06T00:34:56.199Z,6.28
2023-03-06T00:37:24.315Z,7.65
2023-03-06T00:39:50.936Z,8.75
2023-03-06T00:42:18.529Z,10.90
2023-03-06T00:44:45.528Z,10.38
2023-03-06T00:47:12.844Z,11.25
2023-03-06T00:49:39.505Z,12.18
2023-03-06T00:52:05.931Z,12.07
2023-03-06T00:54:32.314Z,12.00
2023-03-06T00:56:58.676Z,12.27
2023-03-06T00:59:25.050Z,12.18
2023-03-06T01:01:51.430Z,11.45
2023-03-06T01:04:17.814Z,11.15
2023-03-06T01:06:44.170Z,11.20
2023-03-06T01:09:10.766Z,11.45
2023-03-06T01:11:38.269Z,10.98
2023-03-06T01:14:05.258Z,12.05
2023-03-06T01:16:31.967Z,11.65
2023-03-06T01:18:58.966Z,12.45
2023-03-06T01:21:25.651Z,12.30
2023-03-06T01:23:52.180Z,11.68
2023-03-06T01:26:18.850Z,11.50
2023-03-06T01:28:45.373Z,12.02
2023-03-06T01:31:11.967Z,12.30
2023-03-06T01:33:38.393Z,13.23
2023-03-06T01:36:07.691Z,12.82
2023-03-06T01:38:35.896Z,13.90
2023-03-06T01:41:03.488Z,12.82
2023-03-06T01:43:38.378Z,14.25
2023-03-06T01:46:41.852Z,15.05
2023-03-06T01:49:22.167Z,13.35
2023-03-06T01:52:00.636Z,14.18
2023-03-06T01:54:29.498Z,15.00
2023-03-06T01:57:33.659Z,14.63
2023-03-06T02:00:06.951Z,14.73
2023-03-06T02:02:33.544Z,14.05
2023-03-06T02:05:02.577Z,14.90
2023-03-06T02:07:29.741Z,15.70
2023-03-06T02:09:56.698Z,15.15
2023-03-06T02:12:23.526Z,14.73
2023-03-06T02:14:50.164Z,14.75
2023-03-06T02:17:19.034Z,15.25
2023-03-06T02:20:03.717Z,15.95
2023-03-06T02:22:39.949Z,16.05
2023-03-06T02:25:40.945Z,16.35
2023-03-06T02:28:11.069Z,14.77
2023-03-06T02:30:38.491Z,15.00
2023-03-06T02:33:05.801Z,14.88
2023-03-06T02:35:34.786Z,15.75
2023-03-06T02:38:06.508Z,16.25
2023-03-06T02:40:32.849Z,15.77
2023-03-06T02:42:59.565Z,15.55
2023-03-06T02:45:40.570Z,15.80
2023-03-06T02:48:07.561Z,17.05
2023-03-06T02:50:33.950Z,16.88
2023-03-06T02:53:00.344Z,16.25
2023-03-06T02:55:26.895Z,17.38
2023-03-06T02:57:53.338Z,16.65
2023-03-06T03:00:19.942Z,17.00
2023-03-06T03:02:46.568Z,15.52
2023-03-06T03:05:12.922Z,16.83
2023-03-06T03:07:39.446Z,16.52
2023-03-06T03:10:06.418Z,15.00
2023-03-06T03:12:33.435Z,17.17
2023-03-06T03:14:59.798Z,16.73
2023-03-06T03:17:26.182Z,16.70
2023-03-06T03:19:52.590Z,17.05
2023-03-06T03:22:19.566Z,17.27
2023-03-06T03:24:46.476Z,16.80
2023-03-06T03:27:13.738Z,17.52
2023-03-06T03:29:40.788Z,16.30
2023-03-06T03:32:07.515Z,17.00
2023-03-06T03:34:33.975Z,16.98
2023-03-06T03:37:00.408Z,17.83
2023-03-06T03:39:26.792Z,17.63
2023-03-06T03:41:53.159Z,17.10
2023-03-06T03:44:19.636Z,16.55
2023-03-06T03:46:46.090Z,15.90
2023-03-06T03:49:12.682Z,16.35
2023-03-06T03:51:39.288Z,14.98
2023-03-06T03:54:06.731Z,15.85
2023-03-06T03:56:34.155Z,14.57
2023-03-06T03:59:00.874Z,15.65
2023-03-06T04:01:27.481Z,15.30
2023-03-06T04:03:54.326Z,15.65
2023-03-06T04:06:20.741Z,14.98
2023-03-06T04:08:47.125Z,14.10
2023-03-06T04:11:13.473Z,14.48
2023-03-06T04:13:39.880Z,14.05
2023-03-06T04:16:06.737Z,15.13
2023-03-06T04:18:33.390Z,14.60
2023-03-06T04:20:59.826Z,14.13
2023-03-06T04:23:27.772Z,15.10
2023-03-06T04:25:54.294Z,14.25
2023-03-06T04:28:21.355Z,14.70
2023-03-06T04:30:47.764Z,14.52
2023-03-06T04:33:14.223Z,15.45
2023-03-06T04:35:40.835Z,14.90
2023-03-06T04:38:07.187Z,14.52
2023-03-06T04:40:36.116Z,15.10
2023-03-06T04:43:03.607Z,15.05
2023-03-06T04:45:31.065Z,14.82
2023-03-06T04:47:58.475Z,15.65
2023-03-06T04:50:25.741Z,16.17
2023-03-06T04:52:52.289Z,15.90
2023-03-06T04:55:19.833Z,16.42
2023-03-06T04:57:47.408Z,16.10
2023-03-06T05:00:20.050Z,17.65
2023-03-06T05:02:49.103Z,18.15
2023-03-06T05:05:17.913Z,17.65
2023-03-06T05:07:44.517Z,18.77
2023-03-06T05:10:19.041Z,18.33
2023-03-06T05:12:45.665Z,18.10
2023-03-06T05:15:12.649Z,18.65
2023-03-06T05:17:42.380Z,18.02
2023-03-06T05:20:11.065Z,19.25
2023-03-06T05:22:37.587Z,18.00
2023-03-06T05:25:04.911Z,19.00
2023-03-06T05:27:31.319Z,18.88
2023-03-06T05:29:57.969Z,19.48
2023-03-06T05:32:24.447Z,19.75
2023-03-06T05:34:51.060Z,19.75
2023-03-06T05:37:17.433Z,19.58
2023-03-06T05:39:44.139Z,19.08
2023-03-06T05:42:10.549Z,19.33
2023-03-06T05:44:37.271Z,20.20
2023-03-06T05:47:03.825Z,18.80
2023-03-06T05:49:35.100Z,19.83
2023-03-06T05:52:03.966Z,19.17
2023-03-06T05:54:32.199Z,19.95
2023-03-06T05:56:58.938Z,18.83
2023-03-06T05:59:28.323Z,18.67
2023-03-06T06:01:56.063Z,19.95
2023-03-06T06:04:23.991Z,19.95
2023-03-06T06:06:55.730Z,20.05
2023-03-06T06:09:22.464Z,19.08
2023-03-06T06:11:57.671Z,19.63
2023-03-06T06:16:51.597Z,18.92
2023-03-06T06:19:20.913Z,19.67
2023-03-06T06:21:49.243Z,19.23
2023-03-06T06:24:17.597Z,19.25
2023-03-06T06:26:44.893Z,19.92
2023-03-06T06:29:12.299Z,19.75
2023-03-06T06:31:39.439Z,19.63
2023-03-06T06:34:06.703Z,20.58
2023-03-06T06:36:33.379Z,20.67
2023-03-06T06:38:59.756Z,20.63
2023-03-06T06:41:42.720Z,21.08
2023-03-06T06:44:15.390Z,20.02
2023-03-06T06:49:32.818Z,19.60
2023-03-06T06:51:59.645Z,18.75
2023-03-06T06:54:26.432Z,18.52
2023-03-06T06:56:53.009Z,18.05
2023-03-06T06:59:19.556Z,17.58
2023-03-06T07:01:46.058Z,19.00
2023-03-06T07:04:13.710Z,19.02
2023-03-06T07:06:40.955Z,18.35
2023-03-06T07:09:07.387Z,19.63
2023-03-06T07:11:33.973Z,17.65
2023-03-06T07:14:01.757Z,18.00
2023-03-06T07:16:28.213Z,18.90
2023-03-06T07:18:54.893Z,18.90
2023-03-06T07:21:21.328Z,18.17
2023-03-06T07:23:47.688Z,19.27
2023-03-06T07:26:14.074Z,18.63
2023-03-06T07:28:51.968Z,17.08
2023-03-06T07:31:22.052Z,17.92
2023-03-06T07:33:49.865Z,18.35
2023-03-06T07:36:17.098Z,18.90
2023-03-06T07:38:43.618Z,17.70
2023-03-06T07:41:13.452Z,16.55
2023-03-06T07:43:44.313Z,16.60
2023-03-06T07:46:12.690Z,15.65
2023-03-06T07:48:39.472Z,16.13
2023-03-06T07:51:17.397Z,15.65
2023-03-06T07:53:44.345Z,15.88
2023-03-06T07:56:11.860Z,15.60
2023-03-06T07:58:40.926Z,15.98
2023-03-06T08:01:12.763Z,16.38
2023-03-06T08:03:39.401Z,16.58
2023-03-06T08:06:11.706Z,16.25
2023-03-06T08:08:40.279Z,16.92
2023-03-06T08:11:08.902Z,15.85
2023-03-06T08:13:35.839Z,16.50
2023-03-06T08:16:02.985Z,16.50
2023-03-06T08:18:29.661Z,16.80
2023-03-06T08:21:24.593Z,17.17
2023-03-06T08:23:51.384Z,16.17
2023-03-06T08:26:23.518Z,17.13
2023-03-06T08:28:52.315Z,16.05
2023-03-06T08:31:37.214Z,15.98
2023-03-06T08:34:09.905Z,18.80
2023-03-06T08:36:36.890Z,21.20
2023-03-06T08:39:04.497Z,18.92
2023-03-06T08:41:30.964Z,21.27
2023-03-06T08:43:57.402Z,20.70
2023-03-06T08:46:25.813Z,22.27
2023-03-06T08:48:52.499Z,20.92
2023-03-06T08:51:19.917Z,21.52
2023-03-06T08:53:47.011Z,21.58
2023-03-06T08:56:24.850Z,23.65
2023-03-06T08:58:52.799Z,22.73
2023-03-06T09:01:25.462Z,22.92
2023-03-06T09:03:56.439Z,23.35
2023-03-06T09:06:23.599Z,21.25
2023-03-06T09:08:54.044Z,21.30
2023-03-06T09:11:21.710Z,20.77
2023-03-06T09:13:48.151Z,21.10
2023-03-06T09:16:14.547Z,21.85
2023-03-06T09:18:40.999Z,22.63
2023-03-06T09:21:09.313Z,22.08
2023-03-06T09:23:37.094Z,19.50
2023-03-06T09:26:03.566Z,21.60
2023-03-06T09:28:29.981Z,19.75
2023-03-06T09:30:56.436Z,20.85
2023-03-06T09:33:23.494Z,20.55
2023-03-06T09:35:53.256Z,20.10
2023-03-06T09:38:23.624Z,20.60
2023-03-06T09:41:01.935Z,19.17
2023-03-06T09:43:32.933Z,19.27
2023-03-06T09:45:59.490Z,20.38
2023-03-06T09:48:40.540Z,21.10
2023-03-06T09:51:17.024Z,20.30
2023-03-06T09:53:55.423Z,20.55
2023-03-06T09:56:24.233Z,19.42
2023-03-06T09:58:55.862Z,17.42
2023-03-06T10:01:28.005Z,18.42
2023-03-06T10:04:02.868Z,18.55
2023-03-06T10:06:48.515Z,17.80
2023-03-06T10:09:20.293Z,16.90
2023-03-06T10:11:58.895Z,19.02
2023-03-06T10:14:43.996Z,17.58
2023-03-06T10:17:23.616Z,18.88
2023-03-06T10:19:50.732Z,15.13
2023-03-06T10:22:46.109Z,16.00
2023-03-06T10:25:36.676Z,15.15
2023-03-06T10:28:12.091Z,16.20
2023-03-06T10:30:52.712Z,15.00
2023-03-06T10:33:30.077Z,13.93
2023-03-06T10:35:56.844Z,14.63
2023-03-06T10:38:32.285Z,14.98
2023-03-06T10:41:10.750Z,15.13
2023-03-06T10:43:43.053Z,14.32
2023-03-06T10:46:12.055Z,16.08
2023-03-06T10:48:41.995Z,15.60
2023-03-06T10:51:19.073Z,15.38
2023-03-06T10:53:48.591Z,15.82
2023-03-06T10:56:27.546Z,15.95
2023-03-06T10:59:13.096Z,15.20
2023-03-06T11:04:25.543Z,13.75
2023-03-06T11:07:04.544Z,14.15
2023-03-06T11:09:33.107Z,15.23
2023-03-06T11:12:35.090Z,14.98
2023-03-06T11:15:07.854Z,14.80
2023-03-06T11:17:55.869Z,16.08
2023-03-06T11:20:51.394Z,15.38
2023-03-06T11:23:21.782Z,15.02
2023-03-06T11:26:20.592Z,15.20
2023-03-06T11:28:57.362Z,15.18
2023-03-06T11:32:05.946Z,15.57
2023-03-06T11:34:38.349Z,16.70
2023-03-06T11:37:29.653Z,15.38
2023-03-06T11:40:11.287Z,15.95
2023-03-06T11:42:39.940Z,16.52
2023-03-06T11:45:57.649Z,16.23
2023-03-06T11:48:39.076Z,15.40
2023-03-06T11:51:14.878Z,15.55
2023-03-06T11:53:41.785Z,15.40
2023-03-06T11:56:08.098Z,14.77
2023-03-06T11:58:51.964Z,15.38
2023-03-06T12:01:49.604Z,15.93
2023-03-06T12:04:38.126Z,14.85
2023-03-06T12:07:32.913Z,13.77
2023-03-06T12:10:34.396Z,13.30
2023-03-06T12:13:27.654Z,13.65
2023-03-06T12:16:24.687Z,12.40
2023-03-06T12:19:12.691Z,13.75
2023-03-06T12:21:57.934Z,13.20
2023-03-06T12:24:51.064Z,12.07
2023-03-06T12:27:48.691Z,13.23
2023-03-06T12:30:24.184Z,12.65
2023-03-06T12:33:08.933Z,12.15
2023-03-06T12:35:58.899Z,11.57
2023-03-06T12:38:55.803Z,11.35
2023-03-06T12:41:47.670Z,11.18
2023-03-06T12:44:32.206Z,9.82
2023-03-06T12:47:10.068Z,10.43
2023-03-06T12:49:41.507Z,10.68
2023-03-06T12:52:11.026Z,13.18
2023-03-06T12:54:40.757Z,13.18
2023-03-06T12:57:09.083Z,14.07
2023-03-06T12:59:38.515Z,14.20
2023-03-06T13:03:02.580Z,14.23
2023-03-06T13:05:38.393Z,12.85
2023-03-06T13:08:40.183Z,12.73
2023-03-06T13:11:23.046Z,12.68
2023-03-06T13:13:49.565Z,14.13
2023-03-06T13:16:15.968Z,14.55
2023-03-06T13:18:42.303Z,12.93
2023-03-06T13:21:46.367Z,12.13
2023-03-06T13:24:37.024Z,12.07
2023-03-06T13:27:07.879Z,12.02
2023-03-06T13:29:37.207Z,11.45
2023-03-06T13:32:03.562Z,12.05
2023-03-06T13:34:46.712Z,12.52
2023-03-06T13:37:28.069Z,11.68
2023-03-06T13:39:58.352Z,12.30
2023-03-06T13:42:36.374Z,12.45
2023-03-06T13:45:19.260Z,12.70
2023-03-06T13:48:15.505Z,12.88
2023-03-06T13:50:43.751Z,11.75
2023-03-06T13:53:37.699Z,11.98
2023-03-06T13:56:29.953Z,10.57
2023-03-06T13:59:20.465Z,10.57
2023-03-06T14:02:29.015Z,10.75
2023-03-06T14:04:58.591Z,10.40
2023-03-06T14:07:30.774Z,11.35
2023-03-06T14:10:25.648Z,11.00
2023-03-06T14:12:52.135Z,11.35
2023-03-06T14:15:46.437Z,11.15
2023-03-06T14:18:12.810Z,12.02
2023-03-06T14:20:39.189Z,11.13
2023-03-06T14:23:20.840Z,12.13
2023-03-06T14:25:53.830Z,12.90
2023-03-06T14:28:29.258Z,13.45
2023-03-06T14:30:57.533Z,12.25
2023-03-06T14:33:30.343Z,12.00
2023-03-06T14:36:00.648Z,9.98
2023-03-06T14:38:30.296Z,10.73
2023-03-06T14:40:58.007Z,10.93
2023-03-06T14:43:27.757Z,9.80
2023-03-06T14:46:06.433Z,10.20
2023-03-06T14:48:44.498Z,10.48
2023-03-06T14:51:20.944Z,10.05
2023-03-06T14:53:49.996Z,11.00
2023-03-06T14:56:22.323Z,10.93
2023-03-06T14:58:59.788Z,11.82
2023-03-06T15:01:40.118Z,12.00
2023-03-06T15:04:25.024Z,12.35
2023-03-06T15:06:52.321Z,13.60
2023-03-06T15:09:33.945Z,13.50
2023-03-06T15:12:02.138Z,14.13
2023-03-06T15:14:34.008Z,13.73
2023-03-06T15:17:18.754Z,13.63
2023-03-06T15:19:47.156Z,12.85
2023-03-06T15:22:40.239Z,14.43
2023-03-06T15:25:09.707Z,14.85
2023-03-06T15:27:36.141Z,15.52
2023-03-06T15:30:23.002Z,15.23
2023-03-06T15:32:49.594Z,13.90
2023-03-06T15:35:27.481Z,15.40
2023-03-06T15:37:54.468Z,14.45
2023-03-06T15:40:23.591Z,15.45
2023-03-06T15:42:50.611Z,16.15
2023-03-06T15:45:19.978Z,15.73
2023-03-06T15:47:48.061Z,15.48
2023-03-06T15:50:19.769Z,15.23
2023-03-06T15:52:46.995Z,14.38
2023-03-06T15:55:15.083Z,14.45
2023-03-06T15:57:48.140Z,14.75
2023-03-06T16:00:27.591Z,15.32
2023-03-06T16:02:56.289Z,14.32
2023-03-06T16:05:23.497Z,14.57
2023-03-06T16:07:50.260Z,15.10
2023-03-06T16:10:22.295Z,13.65
2023-03-06T16:12:53.955Z,14.80
2023-03-06T16:15:28.880Z,14.52
2023-03-06T16:17:56.455Z,14.23
2023-03-06T16:20:28.923Z,13.07
2023-03-06T16:22:56.418Z,13.07
2023-03-06T16:25:24.908Z,13.45
2023-03-06T16:27:59.779Z,13.10
2023-03-06T16:30:30.083Z,13.43
2023-03-06T16:32:57.275Z,12.05
2023-03-06T16:35:24.575Z,11.85
2023-03-06T16:37:51.481Z,12.10
2023-03-06T16:40:25.554Z,13.13
2023-03-06T16:42:55.031Z,11.20
2023-03-06T16:45:22.975Z,11.30
2023-03-06T16:47:49.436Z,11.80
2023-03-06T16:50:28.003Z,11.05
2023-03-06T16:52:55.697Z,11.25
2023-03-06T16:55:23.409Z,11.80
2023-03-06T16:57:49.944Z,11.75
2023-03-06T17:00:19.067Z,11.43
2023-03-06T17:02:48.372Z,12.50
2023-03-06T17:05:15.650Z,11.93
2023-03-06T17:07:42.092Z,11.60
2023-03-06T17:10:12.407Z,12.20
2023-03-06T17:12:39.205Z,12.57
2023-03-06T17:15:06.992Z,12.68
2023-03-06T17:17:33.661Z,11.85
2023-03-06T17:20:00.221Z,12.27
2023-03-06T17:22:27.305Z,12.65
2023-03-06T17:24:54.159Z,12.57
2023-03-06T17:27:22.347Z,12.80
2023-03-06T17:29:48.813Z,12.80
2023-03-06T17:32:15.264Z,12.50
2023-03-06T17:34:41.812Z,13.63
2023-03-06T17:37:08.239Z,13.13
2023-03-06T17:39:37.010Z,14.27
2023-03-06T17:42:04.608Z,13.90
2023-03-06T17:44:33.642Z,13.93
2023-03-06T17:47:00.580Z,14.13
2023-03-06T17:49:27.099Z,13.93
2023-03-06T17:51:54.955Z,13.45
2023-03-06T17:54:21.333Z,14.48
2023-03-06T17:56:47.797Z,14.45
2023-03-06T17:59:14.715Z,15.25
2023-03-06T18:01:41.199Z,13.40
2023-03-06T18:04:07.659Z,13.02
2023-03-06T18:06:34.534Z,13.10
2023-03-06T18:09:01.249Z,13.45
2023-03-06T18:11:28.248Z,13.18
2023-03-06T18:13:54.791Z,13.85
2023-03-06T18:16:23.677Z,13.55
2023-03-06T18:18:55.064Z,13.90
2023-03-06T18:21:22.829Z,14.07
2023-03-06T18:23:49.726Z,15.05
2023-03-06T18:26:22.766Z,13.50
2023-03-06T18:28:53.236Z,13.13
2023-03-06T18:31:25.495Z,13.70
2023-03-06T18:33:53.446Z,14.50
2023-03-06T18:36:21.453Z,14.00
2023-03-06T18:38:48.040Z,13.25
2023-03-06T18:41:14.438Z,14.82
2023-03-06T18:43:40.852Z,14.60
2023-03-06T18:46:07.896Z,13.98
2023-03-06T18:48:34.539Z,14.07
2023-03-06T18:51:09.285Z,12.98
2023-03-06T18:53:36.393Z,13.95
2023-03-06T18:56:03.437Z,14.93
2023-03-06T18:58:29.989Z,13.70
2023-03-06T19:00:59.214Z,13.38
2023-03-06T19:03:25.696Z,13.60
2023-03-06T19:05:52.192Z,13.77
2023-03-06T19:08:18.796Z,13.38
2023-03-06T19:10:46.288Z,14.32
2023-03-06T19:13:13.513Z,13.48
2023-03-06T19:15:48.575Z,14.10
2023-03-06T19:18:17.973Z,13.52
2023-03-06T19:20:44.831Z,13.43
2023-03-06T19:23:11.412Z,14.00
2023-03-06T19:25:37.821Z,14.13
2023-03-06T19:28:04.617Z,14.25
2023-03-06T19:30:31.149Z,13.68
2023-03-06T19:32:57.690Z,13.55
2023-03-06T19:35:26.003Z,15.05
2023-03-06T19:37:53.270Z,14.68
2023-03-06T19:40:20.138Z,13.85
2023-03-06T19:42:46.722Z,13.23
2023-03-06T19:45:13.116Z,13.70
2023-03-06T19:47:39.475Z,14.63
2023-03-06T19:50:06.415Z,14.10
2023-03-06T19:52:36.361Z,12.48
2023-03-06T19:55:02.774Z,13.95
2023-03-06T19:57:29.148Z,13.00
2023-03-06T19:59:57.553Z,11.13
2023-03-06T20:02:27.078Z,12.15
2023-03-06T20:04:54.398Z,10.85
2023-03-06T20:07:21.380Z,11.05
2023-03-06T20:09:48.145Z,10.75
2023-03-06T20:12:15.036Z,11.65
2023-03-06T20:14:42.396Z,11.10
2023-03-06T20:17:08.793Z,12.55
2023-03-06T20:19:35.287Z,11.85
2023-03-06T20:22:01.784Z,12.15
2023-03-06T20:24:28.188Z,12.98
2023-03-06T20:26:57.411Z,12.82
2023-03-06T20:29:28.226Z,12.07
2023-03-06T20:31:56.414Z,12.90
2023-03-06T20:34:23.504Z,13.55
2023-03-06T20:36:50.319Z,12.65
2023-03-06T20:39:18.802Z,12.20
2023-03-06T20:41:46.703Z,12.63
2023-03-06T20:44:15.803Z,13.50
2023-03-06T20:46:42.528Z,13.70
2023-03-06T20:49:10.429Z,14.15
2023-03-06T20:51:39.082Z,13.70
2023-03-06T20:54:07.503Z,14.73
2023-03-06T20:56:35.424Z,13.73
2023-03-06T20:59:02.295Z,14.57
2023-03-06T21:01:40.998Z,13.13
2023-03-06T21:04:10.056Z,14.45
2023-03-06T21:06:37.549Z,13.48
2023-03-06T21:09:06.036Z,14.10
2023-03-06T21:11:34.531Z,14.77
2023-03-06T21:14:01.038Z,14.07
2023-03-06T21:16:28.993Z,14.77
2023-03-06T21:18:56.336Z,14.40
2023-03-06T21:21:26.009Z,14.27
2023-03-06T21:23:52.444Z,15.55
2023-03-06T21:26:21.364Z,15.48
2023-03-06T21:28:48.347Z,15.18
2023-03-06T21:31:17.084Z,15.70
2023-03-06T21:33:44.265Z,16.63
2023-03-06T21:36:11.159Z,16.27
2023-03-06T21:38:37.559Z,16.00
2023-03-06T21:41:18.446Z,15.73
2023-03-06T21:43:44.872Z,16.52
2023-03-06T21:46:11.767Z,16.98
2023-03-06T21:48:38.319Z,17.73
2023-03-06T21:51:07.175Z,16.92
2023-03-06T21:53:33.799Z,17.30
2023-03-06T21:56:03.814Z,17.23
2023-03-06T21:58:30.679Z,19.13
2023-03-06T22:00:57.174Z,17.75
2023-03-06T22:03:23.893Z,17.60
2023-03-06T22:05:51.898Z,17.75
2023-03-06T22:08:21.314Z,16.83
2023-03-06T22:10:48.929Z,18.77
2023-03-06T22:13:15.991Z,18.80
2023-03-06T22:15:53.006Z,17.67
2023-03-06T22:18:19.421Z,17.35
2023-03-06T22:20:45.833Z,17.52
2023-03-06T22:23:12.268Z,16.45
2023-03-06T22:25:38.770Z,17.63
2023-03-06T22:28:05.162Z,17.45
2023-03-06T22:30:31.598Z,16.80
2023-03-06T22:32:58.378Z,17.83
2023-03-06T22:35:24.889Z,17.67
2023-03-06T22:37:51.259Z,18.95
2023-03-06T22:40:17.752Z,18.20
2023-03-06T22:42:44.134Z,16.17
2023-03-06T22:45:11.055Z,16.52
2023-03-06T22:47:37.985Z,17.17
2023-03-06T22:50:06.130Z,16.00
2023-03-06T22:52:33.421Z,15.55
2023-03-06T22:54:59.799Z,15.50
2023-03-06T22:57:26.276Z,15.65
2023-03-06T22:59:52.705Z,14.63
2023-03-06T23:02:19.117Z,14.80
2023-03-06T23:04:52.244Z,16.30
2023-03-06T23:07:20.445Z,15.32
2023-03-06T23:09:47.055Z,13.70
2023-03-06T23:12:13.507Z,13.07
2023-03-06T23:14:39.903Z,13.55
2023-03-06T23:17:06.344Z,13.38
2023-03-06T23:19:32.783Z,13.15
2023-03-06T23:21:59.225Z,12.68
2023-03-06T23:24:25.659Z,12.75
2023-03-06T23:26:52.023Z,12.32
2023-03-06T23:29:18.422Z,11.80
2023-03-06T23:31:44.886Z,12.32
2023-03-06T23:34:11.567Z,12.75
2023-03-06T23:36:37.923Z,11.23
2023-03-06T23:39:04.398Z,11.95
2023-03-06T23:41:30.792Z,11.52
2023-03-06T23:43:58.326Z,11.57
2023-03-06T23:46:24.817Z,11.20
2023-03-06T23:48:52.176Z,12.07
2023-03-06T23:51:21.172Z,11.05
2023-03-06T23:53:52.771Z,11.52
2023-03-06T23:56:19.144Z,11.20
2023-03-06T23:58:45.661Z,10.18
